createdAt,value
2022-08-16T00:02:30.516Z,16.63
2022-08-16T00:04:59.868Z,16.65
2022-08-16T00:07:29.158Z,19.17
2022-08-16T00:09:57.495Z,16.20
2022-08-16T00:12:26.725Z,15.10
2022-08-16T00:14:56.909Z,17.48
2022-08-16T00:17:25.263Z,19.00
2022-08-16T00:19:54.929Z,15.52
2022-08-16T00:22:25.110Z,12.65
2022-08-16T00:24:55.546Z,12.25
2022-08-16T00:27:23.528Z,13.50
2022-08-16T00:30:00.590Z,12.45
2022-08-16T00:32:35.270Z,9.85
2022-08-16T00:35:01.903Z,11.23
2022-08-16T00:37:57.296Z,10.27
2022-08-16T00:40:34.307Z,11.85
2022-08-16T00:43:04.372Z,12.23
2022-08-16T00:45:36.240Z,11.35
2022-08-16T00:48:30.610Z,9.65
2022-08-16T00:50:56.726Z,8.32
2022-08-16T00:53:23.575Z,7.90
2022-08-16T00:55:54.958Z,7.97
2022-08-16T00:58:34.351Z,6.82
2022-08-16T01:01:02.149Z,7.40
2022-08-16T01:03:35.033Z,6.70
2022-08-16T01:06:39.679Z,6.32
2022-08-16T01:08:52.831Z,6.20
2022-08-16T01:11:25.060Z,6.43
2022-08-16T01:13:59.214Z,6.93
2022-08-16T01:16:28.839Z,6.50
2022-08-16T01:19:17.619Z,6.30
2022-08-16T01:21:54.319Z,6.45
2022-08-16T01:24:53.992Z,6.95
2022-08-16T01:27:31.607Z,6.82
2022-08-16T01:30:20.292Z,7.20
2022-08-16T01:33:01.872Z,6.47
2022-08-16T01:35:36.250Z,6.97
2022-08-16T01:38:34.351Z,6.93
2022-08-16T01:41:13.405Z,7.00
2022-08-16T01:43:47.822Z,7.53
2022-08-16T01:46:39.632Z,6.18
2022-08-16T01:49:14.363Z,7.13
2022-08-16T01:51:44.585Z,6.32
2022-08-16T01:54:13.475Z,6.28
2022-08-16T01:56:43.144Z,6.75
2022-08-16T01:59:15.426Z,7.40
2022-08-16T02:01:43.094Z,6.90
2022-08-16T02:04:11.177Z,6.90
2022-08-16T02:06:40.510Z,6.30
2022-08-16T02:09:14.769Z,6.60
2022-08-16T02:11:53.206Z,6.40
2022-08-16T02:14:26.625Z,7.18
2022-08-16T02:16:56.706Z,6.32
2022-08-16T02:19:59.859Z,6.57
2022-08-16T02:22:35.076Z,6.65
2022-08-16T02:25:10.651Z,6.20
2022-08-16T02:27:40.945Z,5.63
2022-08-16T02:30:37.014Z,6.97
2022-08-16T02:33:01.083Z,6.25
2022-08-16T02:35:29.679Z,6.40
2022-08-16T02:37:56.454Z,5.68
2022-08-16T02:40:28.758Z,6.28
2022-08-16T02:42:56.355Z,6.00
2022-08-16T02:45:27.813Z,5.47
2022-08-16T02:48:00.183Z,5.60
2022-08-16T02:50:55.093Z,5.50
2022-08-16T02:53:18.252Z,5.53
2022-08-16T02:55:50.409Z,5.32
2022-08-16T02:58:17.337Z,5.90
2022-08-16T03:00:45.563Z,5.90
2022-08-16T03:03:17.923Z,6.00
2022-08-16T03:05:50.008Z,5.47
2022-08-16T03:08:50.873Z,4.90
2022-08-16T03:11:16.931Z,5.88
2022-08-16T03:13:56.472Z,4.93
2022-08-16T03:16:38.182Z,5.38
2022-08-16T03:19:07.380Z,5.22
2022-08-16T03:21:37.755Z,7.47
2022-08-16T03:24:28.454Z,8.65
2022-08-16T03:26:57.878Z,6.18
2022-08-16T03:29:29.869Z,6.05
2022-08-16T03:31:58.963Z,5.60
2022-08-16T03:34:26.477Z,4.95
2022-08-16T03:36:53.239Z,4.95
2022-08-16T03:39:20.329Z,5.45
2022-08-16T03:41:50.313Z,5.35
2022-08-16T03:44:44.207Z,5.82
2022-08-16T03:47:04.754Z,6.25
2022-08-16T03:49:37.408Z,5.22
2022-08-16T03:52:04.582Z,5.45
2022-08-16T03:54:31.202Z,6.13
2022-08-16T03:56:59.012Z,5.00
2022-08-16T03:59:29.284Z,4.28
2022-08-16T04:01:56.617Z,6.30
2022-08-16T04:04:32.472Z,7.50
2022-08-16T04:07:02.879Z,6.88
2022-08-16T04:09:35.212Z,6.03
2022-08-16T04:12:11.379Z,5.30
2022-08-16T04:14:51.685Z,5.50
2022-08-16T04:17:18.370Z,5.38
2022-08-16T04:19:46.810Z,5.68
2022-08-16T04:22:14.029Z,5.65
2022-08-16T04:24:53.262Z,5.85
2022-08-16T04:27:21.687Z,4.35
2022-08-16T04:29:52.270Z,5.38
2022-08-16T04:32:19.573Z,5.45
2022-08-16T04:34:46.830Z,5.38
2022-08-16T04:37:14.510Z,4.70
2022-08-16T04:39:47.242Z,5.05
2022-08-16T04:42:26.462Z,5.20
2022-08-16T04:44:57.657Z,5.95
2022-08-16T04:47:33.516Z,6.82
2022-08-16T04:50:06.580Z,6.68
2022-08-16T04:52:35.978Z,6.18
2022-08-16T04:55:09.559Z,5.95
2022-08-16T04:57:38.418Z,6.20
2022-08-16T05:00:31.751Z,5.90
2022-08-16T05:02:58.882Z,6.63
2022-08-16T05:05:26.049Z,6.40
2022-08-16T05:08:00.373Z,6.35
2022-08-16T05:10:29.469Z,7.30
2022-08-16T05:12:57.863Z,7.88
2022-08-16T05:15:25.253Z,8.70
2022-08-16T05:17:58.488Z,6.90
2022-08-16T05:20:38.925Z,8.15
2022-08-16T05:23:15.073Z,8.18
2022-08-16T05:25:48.331Z,8.25
2022-08-16T05:28:16.470Z,9.15
2022-08-16T05:30:43.366Z,9.52
2022-08-16T05:33:16.685Z,8.43
2022-08-16T05:35:55.585Z,8.02
2022-08-16T05:38:33.095Z,8.90
2022-08-16T05:41:06.995Z,8.30
2022-08-16T05:43:43.309Z,8.93
2022-08-16T05:46:30.108Z,9.65
2022-08-16T05:49:05.862Z,9.45
2022-08-16T05:51:38.211Z,8.45
2022-08-16T05:54:07.999Z,8.70
2022-08-16T05:56:37.697Z,9.65
2022-08-16T05:59:06.505Z,9.40
2022-08-16T06:01:38.496Z,9.40
2022-08-16T06:04:13.743Z,10.68
2022-08-16T06:06:56.575Z,8.77
2022-08-16T06:09:25.236Z,9.10
2022-08-16T06:11:52.369Z,10.18
2022-08-16T06:14:19.566Z,11.43
2022-08-16T06:16:50.834Z,10.07
2022-08-16T06:19:18.113Z,11.88
2022-08-16T06:21:45.349Z,14.65
2022-08-16T06:24:53.294Z,17.30
2022-08-16T06:26:58.742Z,18.02
2022-08-16T06:29:25.308Z,17.60
2022-08-16T06:31:53.459Z,19.00
2022-08-16T06:34:55.983Z,21.73
2022-08-16T06:37:07.541Z,23.30
2022-08-16T06:39:34.794Z,26.25
2022-08-16T06:42:18.338Z,32.85
2022-08-16T06:44:45.744Z,23.30
2022-08-16T06:47:17.048Z,28.67
2022-08-16T06:49:47.900Z,19.67
2022-08-16T06:53:00.697Z,31.05
2022-08-16T06:55:12.791Z,24.80
2022-08-16T06:57:40.734Z,24.73
2022-08-16T07:00:24.210Z,19.48
2022-08-16T07:02:53.808Z,27.05
2022-08-16T07:05:20.956Z,25.30
2022-08-16T07:07:54.164Z,28.67
2022-08-16T07:10:26.670Z,41.75
2022-08-16T07:13:04.658Z,38.75
2022-08-16T07:15:50.160Z,38.33
2022-08-16T07:18:21.397Z,46.85
2022-08-16T07:20:53.573Z,56.13
2022-08-16T07:23:21.616Z,65.47
2022-08-16T07:26:08.543Z,68.72
2022-08-16T07:28:37.603Z,75.22
2022-08-16T07:31:05.102Z,92.18
2022-08-16T07:33:51.933Z,92.78
2022-08-16T07:36:22.509Z,72.82
2022-08-16T07:38:49.923Z,78.60
2022-08-16T07:41:17.453Z,79.82
2022-08-16T07:43:46.188Z,79.00
2022-08-16T07:46:38.470Z,100.28
2022-08-16T07:49:03.090Z,91.35
2022-08-16T07:51:37.125Z,79.05
2022-08-16T07:54:10.015Z,76.57
2022-08-16T07:56:37.524Z,83.65
2022-08-16T07:59:05.370Z,76.68
2022-08-16T08:01:32.994Z,99.20
2022-08-16T08:04:02.865Z,103.43
2022-08-16T08:06:32.419Z,99.45
2022-08-16T08:09:00.322Z,102.78
2022-08-16T08:11:28.840Z,111.65
2022-08-16T08:14:03.209Z,105.45
2022-08-16T08:16:31.617Z,115.55
2022-08-16T08:19:02.434Z,144.75
2022-08-16T08:22:01.345Z,134.80
2022-08-16T08:24:18.758Z,148.32
2022-08-16T08:26:50.061Z,135.68
2022-08-16T08:29:22.799Z,143.07
2022-08-16T08:31:52.928Z,144.60
2022-08-16T08:34:22.121Z,158.15
2022-08-16T08:36:50.101Z,171.88
2022-08-16T08:39:22.121Z,172.35
2022-08-16T08:41:49.499Z,183.27
2022-08-16T08:44:30.110Z,209.27
2022-08-16T08:47:05.608Z,181.68
2022-08-16T08:49:50.386Z,179.15
2022-08-16T08:52:34.603Z,197.00
2022-08-16T08:55:11.458Z,262.80
2022-08-16T08:57:42.028Z,175.05
2022-08-16T09:00:13.157Z,204.88
2022-08-16T09:02:42.999Z,173.85
2022-08-16T09:05:15.241Z,206.13
2022-08-16T09:07:54.781Z,156.70
2022-08-16T09:10:29.433Z,137.27
2022-08-16T09:12:56.884Z,135.30
2022-08-16T09:15:24.036Z,136.32
2022-08-16T09:17:54.671Z,136.90
2022-08-16T09:20:23.775Z,144.45
2022-08-16T09:22:52.996Z,149.32
2022-08-16T09:25:26.234Z,152.07
2022-08-16T09:28:02.794Z,156.82
2022-08-16T09:30:43.846Z,175.25
2022-08-16T09:33:13.624Z,179.50
2022-08-16T09:35:42.456Z,217.32
2022-08-16T09:38:12.310Z,197.85
2022-08-16T09:40:42.497Z,202.32
2022-08-16T09:43:37.647Z,239.80
2022-08-16T09:46:44.848Z,236.73
2022-08-16T09:48:56.395Z,245.77
2022-08-16T09:51:26.257Z,279.95
2022-08-16T09:53:57.701Z,276.80
2022-08-16T09:56:31.691Z,207.07
2022-08-16T09:59:05.270Z,256.27
2022-08-16T10:01:36.684Z,193.50
2022-08-16T10:04:09.806Z,201.85
2022-08-16T10:06:54.244Z,159.98
2022-08-16T10:09:25.497Z,163.73
2022-08-16T10:12:30.486Z,159.85
2022-08-16T10:14:57.118Z,189.43
2022-08-16T10:17:24.720Z,172.52
2022-08-16T10:19:53.034Z,171.73
2022-08-16T10:22:22.952Z,200.98
2022-08-16T10:24:56.019Z,184.52
2022-08-16T10:27:28.957Z,173.07
2022-08-16T10:30:25.761Z,184.80
2022-08-16T10:32:55.043Z,166.02
2022-08-16T10:35:21.798Z,160.38
2022-08-16T10:37:50.178Z,169.75
2022-08-16T10:40:29.344Z,134.88
2022-08-16T10:42:59.943Z,158.77
2022-08-16T10:45:29.289Z,151.05
2022-08-16T10:48:27.290Z,178.82
2022-08-16T10:50:57.843Z,150.98
2022-08-16T10:53:32.959Z,111.75
2022-08-16T10:56:02.726Z,89.53
2022-08-16T10:58:34.042Z,60.55
2022-08-16T11:01:25.061Z,53.92
2022-08-16T11:03:54.445Z,52.65
2022-08-16T11:06:26.902Z,51.83
2022-08-16T11:14:29.430Z,58.92
2022-08-16T11:17:09.562Z,109.60
2022-08-16T11:20:00.627Z,149.68
2022-08-16T11:22:47.073Z,117.68
2022-08-16T11:25:57.904Z,148.38
2022-08-16T11:28:03.285Z,75.50
2022-08-16T11:30:39.172Z,104.38
2022-08-16T11:33:07.324Z,299.83
2022-08-16T11:38:46.621Z,391.65
2022-08-16T11:41:09.810Z,557.40
2022-08-16T11:43:38.879Z,574.60
2022-08-16T11:46:43.764Z,489.25
2022-08-16T11:48:57.119Z,591.75
2022-08-16T11:51:23.675Z,575.50
2022-08-16T11:53:50.263Z,518.20
2022-08-16T11:56:19.761Z,515.10
2022-08-16T11:58:56.979Z,487.25
2022-08-16T12:01:29.574Z,509.58
2022-08-16T12:04:11.139Z,475.33
2022-08-16T12:06:40.417Z,363.92
2022-08-16T12:09:08.065Z,268.25
2022-08-16T12:11:36.760Z,247.82
2022-08-16T12:14:07.294Z,253.15
2022-08-16T12:16:35.610Z,242.07
2022-08-16T12:19:10.424Z,256.23
2022-08-16T12:21:58.281Z,262.80
2022-08-16T12:24:26.291Z,266.65
2022-08-16T12:26:54.154Z,224.32
2022-08-16T12:29:21.800Z,145.65
2022-08-16T12:32:01.186Z,153.88
2022-08-16T12:34:37.538Z,150.15
2022-08-16T12:37:15.502Z,193.65
2022-08-16T12:39:50.785Z,186.05
2022-08-16T12:42:19.434Z,262.10
2022-08-16T12:44:47.250Z,198.63
2022-08-16T12:47:32.477Z,231.25
2022-08-16T12:49:59.360Z,295.73
2022-08-16T12:52:32.628Z,313.08
2022-08-16T12:55:01.985Z,368.20
2022-08-16T12:57:36.219Z,303.33
2022-08-16T13:00:26.768Z,295.27
2022-08-16T13:03:01.986Z,407.05
2022-08-16T13:05:29.189Z,367.08
2022-08-16T13:07:58.346Z,385.23
2022-08-16T13:10:37.270Z,428.23
2022-08-16T13:13:05.949Z,425.08
2022-08-16T13:15:36.153Z,474.98
2022-08-16T13:18:24.000Z,513.50
2022-08-16T13:20:54.170Z,373.70
2022-08-16T13:23:21.480Z,344.00
2022-08-16T13:25:50.042Z,363.05
2022-08-16T13:28:18.755Z,369.60
2022-08-16T13:30:50.522Z,419.45
2022-08-16T13:33:30.191Z,421.40
2022-08-16T13:36:00.718Z,323.42
2022-08-16T13:38:31.192Z,208.32
2022-08-16T13:40:59.817Z,224.85
2022-08-16T13:43:28.775Z,191.85
2022-08-16T13:45:56.567Z,119.07
2022-08-16T13:48:26.458Z,99.75
2022-08-16T13:51:10.048Z,108.50
2022-08-16T13:53:44.129Z,64.20
2022-08-16T13:56:10.806Z,49.22
2022-08-16T13:58:54.443Z,52.38
2022-08-16T14:01:22.362Z,44.55
2022-08-16T14:03:49.241Z,26.58
2022-08-16T14:06:16.078Z,20.50
2022-08-16T14:08:58.934Z,22.60
2022-08-16T14:11:32.535Z,26.25
2022-08-16T14:13:59.417Z,26.20
2022-08-16T14:16:33.708Z,23.10
2022-08-16T14:19:00.963Z,19.88
2022-08-16T14:21:35.500Z,20.90
2022-08-16T14:24:07.906Z,18.70
2022-08-16T14:26:49.701Z,19.90
2022-08-16T14:31:53.677Z,19.63
2022-08-16T14:36:47.411Z,18.65
2022-08-16T14:39:18.719Z,18.98
2022-08-16T14:41:45.261Z,20.52
2022-08-16T14:44:12.170Z,19.58
2022-08-16T14:46:40.334Z,19.48
2022-08-16T14:49:09.733Z,18.48
2022-08-16T14:51:36.652Z,18.73
2022-08-16T14:54:05.518Z,17.55
2022-08-16T14:56:43.129Z,18.13
2022-08-16T14:59:13.551Z,19.30
2022-08-16T15:01:57.477Z,19.75
2022-08-16T15:04:39.608Z,20.30
2022-08-16T15:07:11.035Z,19.50
2022-08-16T15:09:44.126Z,20.50
2022-08-16T15:12:32.721Z,22.48
2022-08-16T15:15:01.646Z,21.48
2022-08-16T15:17:33.971Z,22.88
2022-08-16T15:20:09.216Z,21.35
2022-08-16T15:22:42.900Z,22.40
2022-08-16T15:25:21.819Z,22.33
2022-08-16T15:27:55.448Z,24.75
2022-08-16T15:30:58.089Z,25.33
2022-08-16T15:33:15.236Z,23.52
2022-08-16T15:35:43.479Z,22.80
2022-08-16T15:38:10.783Z,21.55
2022-08-16T15:40:59.015Z,22.80
2022-08-16T15:43:33.935Z,20.95
2022-08-16T15:46:35.502Z,21.65
2022-08-16T15:49:13.314Z,21.75
2022-08-16T15:51:41.291Z,20.27
2022-08-16T15:54:16.235Z,19.40
2022-08-16T15:57:00.217Z,20.27
2022-08-16T15:59:47.939Z,21.27
2022-08-16T16:02:27.218Z,21.10
2022-08-16T16:04:54.526Z,22.13
2022-08-16T16:07:22.202Z,21.17
2022-08-16T16:09:48.931Z,20.40
2022-08-16T16:12:50.238Z,22.25
2022-08-16T16:15:06.520Z,21.88
2022-08-16T16:17:35.494Z,20.23
2022-08-16T16:20:13.768Z,21.50
2022-08-16T16:22:43.474Z,19.85
2022-08-16T16:25:12.538Z,21.45
2022-08-16T16:27:39.462Z,19.80
2022-08-16T16:30:11.268Z,18.48
2022-08-16T16:32:58.255Z,19.35
2022-08-16T16:35:32.768Z,20.08
2022-08-16T16:38:00.148Z,21.42
2022-08-16T16:40:32.217Z,25.77
2022-08-16T16:43:00.057Z,32.75
2022-08-16T16:45:33.490Z,40.75
2022-08-16T16:48:11.702Z,52.10
2022-08-16T16:50:44.490Z,62.95
2022-08-16T16:53:16.732Z,74.37
2022-08-16T16:55:47.719Z,86.47
2022-08-16T16:58:43.411Z,84.72
2022-08-16T17:01:10.819Z,83.05
2022-08-16T17:03:38.630Z,78.15
2022-08-16T17:06:09.347Z,80.20
2022-08-16T17:08:40.943Z,83.63
2022-08-16T17:11:09.739Z,97.57
2022-08-16T17:13:37.019Z,99.07
2022-08-16T17:16:04.978Z,102.28
2022-08-16T17:19:14.570Z,86.80
2022-08-16T17:21:18.677Z,92.00
2022-08-16T17:23:58.922Z,97.93
2022-08-16T17:26:33.965Z,95.18
2022-08-16T17:29:02.117Z,100.43
2022-08-16T17:31:40.632Z,111.57
2022-08-16T17:34:30.764Z,107.93
2022-08-16T17:36:54.730Z,112.32
2022-08-16T17:39:21.570Z,112.22
2022-08-16T17:41:51.110Z,107.30
2022-08-16T17:44:19.310Z,116.13
2022-08-16T17:46:50.939Z,115.30
2022-08-16T17:49:18.575Z,119.63
2022-08-16T17:51:45.080Z,132.50
2022-08-16T17:54:18.320Z,129.07
2022-08-16T17:56:56.842Z,150.15
2022-08-16T17:59:24.232Z,154.98
2022-08-16T18:01:50.846Z,194.07
2022-08-16T18:04:48.647Z,217.90
2022-08-16T18:07:05.299Z,243.85
2022-08-16T18:09:31.894Z,193.80
2022-08-16T18:11:58.673Z,257.08
2022-08-16T18:14:52.191Z,297.92
2022-08-16T18:17:12.967Z,360.85
2022-08-16T18:19:39.559Z,356.55
2022-08-16T18:22:18.227Z,417.38
2022-08-16T18:24:49.579Z,447.63
2022-08-16T18:27:26.589Z,408.55
2022-08-16T18:29:54.108Z,430.88
2022-08-16T18:32:24.912Z,416.48
2022-08-16T18:34:54.512Z,419.92
2022-08-16T18:37:24.586Z,481.75
2022-08-16T18:39:51.156Z,526.97
2022-08-16T18:42:17.948Z,530.92
2022-08-16T18:44:44.799Z,527.72
2022-08-16T18:47:11.419Z,494.15
2022-08-16T18:49:38.336Z,452.98
2022-08-16T18:52:05.589Z,416.88
2022-08-16T18:54:33.388Z,445.48
2022-08-16T18:57:03.395Z,548.13
2022-08-16T18:59:33.210Z,532.00
2022-08-16T19:02:05.145Z,571.75
2022-08-16T19:04:48.045Z,599.30
2022-08-16T19:07:30.527Z,459.25
2022-08-16T19:09:59.584Z,558.00
2022-08-16T19:12:37.781Z,559.42
2022-08-16T19:15:13.280Z,586.92
2022-08-16T19:17:40.203Z,617.88
2022-08-16T19:20:10.781Z,615.42
2022-08-16T19:23:01.475Z,591.38
2022-08-16T19:25:46.409Z,577.10
2022-08-16T19:28:45.902Z,511.42
2022-08-16T19:31:00.090Z,516.20
2022-08-16T19:33:26.640Z,459.08
2022-08-16T19:35:53.224Z,489.90
2022-08-16T19:38:19.944Z,434.98
2022-08-16T19:40:46.765Z,420.92
2022-08-16T19:43:13.346Z,402.45
2022-08-16T19:45:45.358Z,416.73
2022-08-16T19:48:12.764Z,401.77
2022-08-16T19:50:39.835Z,402.10
2022-08-16T19:53:13.116Z,348.73
2022-08-16T19:55:45.800Z,365.25
2022-08-16T19:58:15.456Z,289.13
2022-08-16T20:00:43.324Z,247.70
2022-08-16T20:03:15.231Z,241.10
2022-08-16T20:05:43.598Z,225.50
2022-08-16T20:08:11.353Z,200.60
2022-08-16T20:10:39.503Z,188.40
2022-08-16T20:13:20.982Z,174.25
2022-08-16T20:15:48.842Z,172.25
2022-08-16T20:18:21.311Z,158.10
2022-08-16T20:20:52.874Z,147.02
2022-08-16T20:23:24.788Z,151.48
2022-08-16T20:25:55.847Z,143.18
2022-08-16T20:28:51.822Z,131.80
2022-08-16T20:31:11.471Z,135.27
2022-08-16T20:33:38.112Z,134.27
2022-08-16T20:36:04.808Z,138.75
2022-08-16T20:38:31.477Z,145.32
2022-08-16T20:40:58.015Z,153.55
2022-08-16T20:43:24.561Z,146.90
2022-08-16T20:45:51.084Z,148.10
2022-08-16T20:48:17.619Z,152.35
2022-08-16T20:50:45.059Z,150.20
2022-08-16T20:53:11.940Z,154.43
2022-08-16T20:55:40.097Z,155.60
2022-08-16T20:58:06.659Z,153.82
2022-08-16T21:00:33.653Z,145.68
2022-08-16T21:03:01.560Z,138.43
2022-08-16T21:05:31.152Z,136.35
2022-08-16T21:07:58.598Z,132.40
2022-08-16T21:10:25.179Z,126.88
2022-08-16T21:12:57.910Z,122.35
2022-08-16T21:15:26.735Z,104.32
2022-08-16T21:17:53.786Z,111.88
2022-08-16T21:20:22.699Z,100.43
2022-08-16T21:22:55.276Z,96.68
2022-08-16T21:25:23.497Z,114.60
2022-08-16T21:28:39.523Z,112.35
2022-08-16T21:30:39.471Z,91.38
2022-08-16T21:33:12.360Z,97.72
2022-08-16T21:35:41.007Z,95.43
2022-08-16T21:38:28.665Z,97.20
2022-08-16T21:40:54.267Z,98.65
2022-08-16T21:43:22.902Z,92.00
2022-08-16T21:45:54.855Z,84.22
2022-08-16T21:48:32.645Z,68.28
2022-08-16T21:51:06.794Z,90.70
2022-08-16T21:53:33.771Z,81.60
2022-08-16T21:56:00.914Z,80.05
2022-08-16T21:58:28.593Z,78.47
2022-08-16T22:00:55.908Z,58.72
2022-08-16T22:03:23.502Z,57.75
2022-08-16T22:06:12.154Z,57.22
2022-08-16T22:08:39.509Z,53.47
2022-08-16T22:11:15.427Z,41.90
2022-08-16T22:13:41.993Z,39.47
2022-08-16T22:16:15.815Z,33.67
2022-08-16T22:18:42.314Z,31.80
2022-08-16T22:21:18.873Z,29.52
2022-08-16T22:23:45.432Z,31.38
2022-08-16T22:26:29.943Z,27.55
2022-08-16T22:29:01.926Z,26.60
2022-08-16T22:31:28.822Z,29.15
2022-08-16T22:33:58.609Z,28.92
2022-08-16T22:36:28.602Z,29.58
2022-08-16T22:39:00.625Z,29.75
2022-08-16T22:41:28.646Z,32.00
2022-08-16T22:43:55.663Z,32.80
2022-08-16T22:46:22.549Z,32.13
2022-08-16T22:48:52.210Z,33.45
2022-08-16T22:51:20.844Z,31.67
2022-08-16T22:53:47.640Z,32.33
2022-08-16T22:56:15.705Z,29.27
2022-08-16T22:58:42.442Z,26.45
2022-08-16T23:01:10.455Z,22.08
2022-08-16T23:03:37.774Z,18.45
2022-08-16T23:06:05.353Z,13.60
2022-08-16T23:08:39.859Z,13.82
2022-08-16T23:11:13.448Z,10.35
2022-08-16T23:13:50.710Z,10.07
2022-08-16T23:16:24.862Z,10.20
2022-08-16T23:18:59.503Z,7.55
2022-08-16T23:21:26.499Z,7.45
2022-08-16T23:23:53.981Z,6.18
2022-08-16T23:26:45.206Z,7.28
2022-08-16T23:29:07.600Z,7.07
2022-08-16T23:31:49.166Z,5.78
2022-08-16T23:34:16.066Z,6.57
2022-08-16T23:36:42.591Z,6.20
2022-08-16T23:39:09.182Z,6.18
2022-08-16T23:41:35.780Z,6.80
2022-08-16T23:44:02.419Z,8.57
2022-08-16T23:46:49.427Z,6.18
2022-08-16T23:49:58.438Z,7.05
2022-08-16T23:52:09.902Z,6.07
2022-08-16T23:54:36.568Z,6.38
2022-08-16T23:57:03.361Z,6.75
2022-08-16T23:59:29.932Z,6.60
